createdAt,value
2022-07-30T00:00:11.266Z,16.10
2022-07-30T00:03:16.278Z,16.15
2022-07-30T00:06:21.745Z,16.02
2022-07-30T00:09:27.027Z,16.10
2022-07-30T00:12:33.636Z,16.07
2022-07-30T00:15:39.091Z,16.02
2022-07-30T00:18:44.305Z,16.01
2022-07-30T00:21:49.860Z,16.00
2022-07-30T00:24:55.997Z,16.14
2022-07-30T00:28:02.918Z,16.61
2022-07-30T00:31:08.119Z,16.69
2022-07-30T00:34:13.616Z,16.68
2022-07-30T00:37:19.248Z,16.62
2022-07-30T00:40:24.673Z,16.68
2022-07-30T00:43:31.587Z,16.60
2022-07-30T00:46:36.975Z,16.43
2022-07-30T00:49:44.363Z,16.46
2022-07-30T00:52:49.765Z,16.44
2022-07-30T00:55:54.773Z,16.40
2022-07-30T00:59:01.627Z,16.28
2022-07-30T01:02:07.316Z,16.30
2022-07-30T01:05:13.210Z,16.30
2022-07-30T01:08:18.787Z,16.18
2022-07-30T01:11:29.612Z,16.07
2022-07-30T01:14:37.295Z,16.17
2022-07-30T01:17:42.497Z,16.08
2022-07-30T01:20:58.323Z,16.01
2022-07-30T01:24:17.377Z,16.01
2022-07-30T01:27:26.204Z,15.93
2022-07-30T01:30:35.511Z,15.94
2022-07-30T01:33:45.975Z,15.88
2022-07-30T01:36:52.012Z,15.88
2022-07-30T01:39:58.260Z,15.87
2022-07-30T01:43:08.089Z,15.76
2022-07-30T01:46:15.927Z,15.81
2022-07-30T01:49:24.048Z,15.82
2022-07-30T01:52:31.615Z,15.61
2022-07-30T01:55:41.122Z,15.75
2022-07-30T01:58:50.576Z,15.73
2022-07-30T02:02:01.552Z,15.62
2022-07-30T02:05:07.451Z,15.58
2022-07-30T02:08:17.860Z,15.66
2022-07-30T02:11:44.530Z,15.66
2022-07-30T02:14:57.383Z,15.64
2022-07-30T02:18:07.401Z,15.59
2022-07-30T02:21:13.901Z,15.55
2022-07-30T02:24:24.989Z,15.43
2022-07-30T02:27:34.950Z,15.37
2022-07-30T02:30:49.391Z,15.29
2022-07-30T02:33:59.344Z,15.35
2022-07-30T02:37:07.033Z,15.26
2022-07-30T02:40:18.889Z,15.24
2022-07-30T02:43:26.085Z,15.19
2022-07-30T02:46:33.400Z,15.23
2022-07-30T02:49:59.570Z,15.26
2022-07-30T02:53:09.920Z,15.19
2022-07-30T02:56:17.394Z,15.23
2022-07-30T02:59:24.893Z,15.21
2022-07-30T03:02:32.838Z,15.08
2022-07-30T03:05:39.571Z,14.90
2022-07-30T03:08:46.114Z,15.09
2022-07-30T03:11:53.473Z,15.06
2022-07-30T03:14:59.402Z,14.89
2022-07-30T03:18:07.842Z,14.89
2022-07-30T03:21:15.936Z,14.89
2022-07-30T03:24:25.377Z,14.83
2022-07-30T03:27:32.338Z,14.73
2022-07-30T03:30:38.386Z,14.84
2022-07-30T03:33:46.156Z,14.72
2022-07-30T03:36:55.487Z,14.82
2022-07-30T03:40:01.834Z,14.62
2022-07-30T03:43:18.552Z,14.72
2022-07-30T03:46:37.439Z,14.67
2022-07-30T03:49:44.522Z,14.60
2022-07-30T03:52:50.592Z,14.56
2022-07-30T03:55:56.695Z,14.66
2022-07-30T03:59:21.091Z,14.70
2022-07-30T04:02:26.913Z,14.75
2022-07-30T04:05:56.729Z,14.74
2022-07-30T04:09:02.449Z,14.64
2022-07-30T04:12:07.966Z,14.59
2022-07-30T04:16:05.704Z,14.68
2022-07-30T04:18:45.271Z,14.75
2022-07-30T04:21:55.029Z,14.78
2022-07-30T04:25:02.550Z,14.68
2022-07-30T04:28:08.281Z,14.74
2022-07-30T04:31:13.671Z,14.71
2022-07-30T04:34:19.603Z,14.71
2022-07-30T04:37:27.992Z,14.80
2022-07-30T04:40:33.549Z,14.90
2022-07-30T04:43:39.189Z,15.00
2022-07-30T04:46:44.816Z,15.10
2022-07-30T04:49:51.819Z,15.15
2022-07-30T04:52:58.547Z,15.18
2022-07-30T04:56:12.113Z,15.16
2022-07-30T04:59:19.219Z,15.30
2022-07-30T05:02:28.374Z,15.53
2022-07-30T05:05:34.799Z,15.55
2022-07-30T05:08:42.713Z,15.73
2022-07-30T05:11:53.253Z,15.83
2022-07-30T05:14:58.528Z,15.86
2022-07-30T05:18:03.805Z,15.97
2022-07-30T05:21:16.894Z,16.08
2022-07-30T05:24:26.886Z,16.25
2022-07-30T05:27:35.068Z,16.34
2022-07-30T05:30:46.039Z,16.60
2022-07-30T05:33:55.394Z,16.87
2022-07-30T05:37:04.817Z,16.95
2022-07-30T05:40:13.355Z,17.11
2022-07-30T05:43:55.833Z,17.31
2022-07-30T05:47:02.289Z,17.31
2022-07-30T05:50:08.359Z,17.61
2022-07-30T05:53:14.470Z,17.79
2022-07-30T05:56:40.931Z,17.99
2022-07-30T05:59:52.302Z,18.36
2022-07-30T06:03:21.984Z,18.41
2022-07-30T06:07:05.888Z,18.73
2022-07-30T06:10:12.420Z,18.92
2022-07-30T06:13:19.006Z,19.04
2022-07-30T06:16:24.617Z,19.11
2022-07-30T06:19:30.042Z,19.02
2022-07-30T06:22:35.345Z,19.10
2022-07-30T06:25:46.127Z,19.27
2022-07-30T06:28:52.525Z,19.25
2022-07-30T06:32:05.036Z,19.60
2022-07-30T06:35:10.611Z,19.75
2022-07-30T06:38:16.050Z,19.93
2022-07-30T06:41:32.405Z,19.95
2022-07-30T06:44:39.674Z,19.63
2022-07-30T06:47:59.658Z,20.09
2022-07-30T06:51:06.676Z,20.34
2022-07-30T06:54:13.113Z,20.52
2022-07-30T06:57:50.912Z,20.60
2022-07-30T07:01:26.615Z,21.08
2022-07-30T07:04:33.258Z,20.93
2022-07-30T07:07:44.431Z,20.28
2022-07-30T07:10:59.220Z,20.81
2022-07-30T07:14:08.854Z,21.25
2022-07-30T07:17:16.412Z,21.22
2022-07-30T07:20:46.591Z,21.02
2022-07-30T07:23:52.037Z,21.16
2022-07-30T07:27:16.669Z,21.29
2022-07-30T07:30:25.202Z,21.69
2022-07-30T07:33:32.206Z,21.80
2022-07-30T07:36:37.908Z,21.95
2022-07-30T07:39:43.323Z,21.57
2022-07-30T07:42:48.921Z,21.91
2022-07-30T07:45:57.108Z,22.11
2022-07-30T07:49:06.377Z,21.76
2022-07-30T07:52:23.618Z,22.02
2022-07-30T07:55:31.695Z,21.99
2022-07-30T07:58:38.802Z,22.47
2022-07-30T08:01:47.567Z,22.41
2022-07-30T08:05:06.877Z,22.67
2022-07-30T08:08:37.497Z,22.93
2022-07-30T08:12:18.171Z,22.43
2022-07-30T08:15:38.523Z,22.90
2022-07-30T08:19:21.970Z,23.21
2022-07-30T08:22:46.950Z,23.13
2022-07-30T08:25:53.656Z,23.37
2022-07-30T08:28:59.076Z,23.61
2022-07-30T08:32:04.525Z,23.46
2022-07-30T08:35:13.478Z,23.92
2022-07-30T08:38:20.581Z,23.16
2022-07-30T08:41:27.107Z,23.48
2022-07-30T08:44:34.209Z,23.58
2022-07-30T08:47:42.139Z,23.77
2022-07-30T08:50:51.343Z,23.88
2022-07-30T08:54:20.220Z,24.22
2022-07-30T08:57:26.239Z,24.26
2022-07-30T09:00:31.985Z,24.52
2022-07-30T09:03:44.138Z,24.63
2022-07-30T09:06:50.298Z,24.80
2022-07-30T09:09:57.370Z,24.57
2022-07-30T09:13:04.094Z,24.09
2022-07-30T09:16:20.519Z,24.50
2022-07-30T09:19:26.788Z,24.98
2022-07-30T09:22:43.693Z,24.82
2022-07-30T09:26:29.506Z,24.96
2022-07-30T09:29:59.337Z,25.22
2022-07-30T09:33:33.751Z,25.18
2022-07-30T09:37:02.095Z,25.29
2022-07-30T09:40:33.627Z,25.47
2022-07-30T09:44:03.908Z,25.43
2022-07-30T09:47:31.567Z,25.27
2022-07-30T09:50:37.371Z,25.35
2022-07-30T09:53:57.622Z,25.75
2022-07-30T09:57:25.749Z,25.52
2022-07-30T10:00:37.677Z,26.17
2022-07-30T10:04:24.979Z,25.37
2022-07-30T10:07:43.627Z,25.76
2022-07-30T10:10:50.710Z,25.86
2022-07-30T10:13:59.116Z,26.03
2022-07-30T10:17:06.845Z,26.11
2022-07-30T10:20:15.064Z,26.30
2022-07-30T10:23:44.221Z,26.46
2022-07-30T10:27:10.175Z,26.66
2022-07-30T10:30:27.957Z,27.02
2022-07-30T10:33:40.009Z,26.88
2022-07-30T10:36:49.601Z,27.11
2022-07-30T10:39:58.412Z,27.06
2022-07-30T10:43:24.310Z,27.18
2022-07-30T10:46:50.825Z,27.28
2022-07-30T10:50:12.035Z,27.41
2022-07-30T10:53:39.611Z,27.04
2022-07-30T10:57:04.120Z,26.45
2022-07-30T11:00:15.172Z,26.31
2022-07-30T11:03:23.532Z,27.15
2022-07-30T11:06:37.738Z,26.81
2022-07-30T11:09:43.694Z,27.61
2022-07-30T11:12:56.505Z,27.81
2022-07-30T11:16:02.275Z,27.98
2022-07-30T11:19:56.584Z,27.76
2022-07-30T11:22:44.804Z,27.57
2022-07-30T11:25:54.492Z,27.94
2022-07-30T11:29:00.163Z,28.59
2022-07-30T11:32:25.359Z,27.73
2022-07-30T11:35:35.190Z,27.39
2022-07-30T11:39:03.671Z,27.72
2022-07-30T11:42:25.617Z,27.82
2022-07-30T11:45:30.865Z,28.12
2022-07-30T11:48:38.029Z,27.81
2022-07-30T11:51:47.235Z,28.14
2022-07-30T11:54:55.457Z,28.16
2022-07-30T11:58:03.494Z,27.42
2022-07-30T12:01:14.369Z,27.58
2022-07-30T12:04:20.656Z,27.45
2022-07-30T12:07:25.917Z,27.24
2022-07-30T12:10:32.374Z,27.37
2022-07-30T12:13:44.452Z,27.86
2022-07-30T12:16:54.169Z,28.25
2022-07-30T12:19:59.838Z,28.10
2022-07-30T12:23:11.423Z,28.54
2022-07-30T12:26:26.942Z,28.81
2022-07-30T12:29:33.118Z,28.96
2022-07-30T12:32:38.644Z,28.53
2022-07-30T12:35:45.547Z,28.48
2022-07-30T12:38:52.726Z,28.00
2022-07-30T12:41:59.531Z,28.47
2022-07-30T12:45:08.111Z,28.41
2022-07-30T12:48:14.108Z,28.34
2022-07-30T12:51:21.662Z,28.73
2022-07-30T12:54:27.042Z,28.23
2022-07-30T12:58:02.904Z,28.11
2022-07-30T13:01:13.636Z,28.79
2022-07-30T13:04:19.535Z,28.42
2022-07-30T13:07:24.720Z,27.59
2022-07-30T13:10:31.586Z,28.34
2022-07-30T13:13:38.605Z,29.02
2022-07-30T13:16:44.319Z,28.70
2022-07-30T13:19:49.622Z,29.25
2022-07-30T13:23:00.156Z,29.05
2022-07-30T13:26:09.153Z,29.10
2022-07-30T13:29:15.928Z,29.15
2022-07-30T13:32:21.106Z,29.08
2022-07-30T13:35:26.469Z,29.51
2022-07-30T13:38:31.647Z,29.80
2022-07-30T13:41:36.774Z,29.58
2022-07-30T13:44:43.443Z,29.29
2022-07-30T13:47:54.828Z,29.19
2022-07-30T13:51:01.449Z,28.97
2022-07-30T13:54:07.293Z,29.05
2022-07-30T13:57:12.402Z,28.48
2022-07-30T14:00:19.448Z,27.95
2022-07-30T14:03:24.714Z,27.96
2022-07-30T14:06:29.613Z,27.90
2022-07-30T14:09:34.444Z,27.96
2022-07-30T14:12:50.829Z,28.04
2022-07-30T14:15:57.105Z,27.83
2022-07-30T14:19:02.034Z,27.61
2022-07-30T14:22:07.677Z,27.54
2022-07-30T14:25:13.307Z,27.37
2022-07-30T14:28:18.472Z,26.85
2022-07-30T14:31:25.117Z,27.38
2022-07-30T14:34:30.225Z,27.46
2022-07-30T14:37:35.299Z,27.64
2022-07-30T14:40:40.683Z,28.04
2022-07-30T14:43:45.586Z,28.27
2022-07-30T14:46:52.983Z,28.39
2022-07-30T14:49:58.232Z,28.48
2022-07-30T14:53:03.049Z,29.17
2022-07-30T14:56:08.503Z,29.59
2022-07-30T14:59:13.503Z,29.92
2022-07-30T15:02:19.992Z,29.32
2022-07-30T15:05:25.406Z,28.80
2022-07-30T15:08:33.115Z,29.34
2022-07-30T15:12:03.548Z,29.57
2022-07-30T15:15:03.799Z,29.58
2022-07-30T15:18:11.762Z,29.18
2022-07-30T15:21:17.151Z,28.99
2022-07-30T15:24:22.399Z,28.85
2022-07-30T15:27:33.919Z,28.42
2022-07-30T15:30:39.238Z,28.21
2022-07-30T15:33:45.668Z,28.08
2022-07-30T15:36:50.821Z,27.91
2022-07-30T15:39:56.323Z,27.56
2022-07-30T15:43:01.295Z,27.19
2022-07-30T15:46:14.084Z,26.85
2022-07-30T15:49:20.994Z,26.85
2022-07-30T15:52:26.576Z,26.72
2022-07-30T15:55:31.545Z,26.87
2022-07-30T15:58:52.540Z,26.56
2022-07-30T16:01:57.821Z,26.45
2022-07-30T16:05:05.428Z,26.69
2022-07-30T16:08:13.739Z,26.61
2022-07-30T16:11:22.267Z,26.30
2022-07-30T16:14:27.730Z,26.52
2022-07-30T16:17:33.096Z,26.70
2022-07-30T16:20:43.361Z,26.76
2022-07-30T16:23:48.315Z,26.92
2022-07-30T16:26:53.437Z,26.90
2022-07-30T16:29:59.196Z,27.25
2022-07-30T16:33:04.659Z,27.08
2022-07-30T16:36:11.416Z,27.02
2022-07-30T16:39:17.256Z,26.64
2022-07-30T16:42:22.856Z,26.45
2022-07-30T16:45:28.815Z,26.41
2022-07-30T16:48:34.657Z,25.93
2022-07-30T16:51:42.756Z,25.88
2022-07-30T16:54:47.976Z,25.74
2022-07-30T16:57:53.695Z,25.59
2022-07-30T17:00:59.684Z,25.35
2022-07-30T17:04:05.277Z,25.21
2022-07-30T17:07:11.650Z,25.10
2022-07-30T17:10:16.638Z,25.03
2022-07-30T17:13:31.986Z,25.08
2022-07-30T17:16:40.237Z,24.94
2022-07-30T17:19:46.107Z,24.93
2022-07-30T17:22:55.180Z,24.83
2022-07-30T17:26:00.714Z,24.74
2022-07-30T17:29:13.932Z,24.86
2022-07-30T17:32:20.189Z,24.91
2022-07-30T17:35:26.293Z,24.88
2022-07-30T17:38:33.230Z,25.04
2022-07-30T17:41:58.204Z,25.08
2022-07-30T17:45:04.987Z,24.85
2022-07-30T17:48:10.608Z,24.80
2022-07-30T17:51:16.416Z,24.69
2022-07-30T17:54:23.023Z,24.48
2022-07-30T17:57:28.420Z,24.46
2022-07-30T18:00:35.322Z,24.35
2022-07-30T18:03:45.096Z,24.27
2022-07-30T18:06:50.753Z,24.18
2022-07-30T18:09:57.671Z,24.08
2022-07-30T18:13:25.636Z,24.02
2022-07-30T18:16:29.182Z,24.05
2022-07-30T18:19:34.454Z,23.89
2022-07-30T18:22:40.377Z,23.76
2022-07-30T18:25:51.969Z,23.54
2022-07-30T18:28:59.216Z,23.60
2022-07-30T18:32:04.740Z,23.57
2022-07-30T18:35:14.822Z,23.50
2022-07-30T18:38:20.633Z,23.31
2022-07-30T18:41:27.341Z,23.18
2022-07-30T18:44:32.950Z,23.23
2022-07-30T18:47:38.341Z,23.07
2022-07-30T18:50:43.711Z,23.00
2022-07-30T18:53:49.192Z,22.92
2022-07-30T18:56:55.501Z,22.97
2022-07-30T19:00:00.888Z,22.90
2022-07-30T19:03:06.122Z,22.61
2022-07-30T19:06:11.407Z,22.63
2022-07-30T19:09:18.016Z,22.52
2022-07-30T19:12:25.199Z,22.41
2022-07-30T19:15:30.976Z,22.45
2022-07-30T19:18:36.671Z,22.32
2022-07-30T19:21:42.575Z,22.31
2022-07-30T19:24:51.319Z,22.15
2022-07-30T19:27:58.085Z,22.13
2022-07-30T19:31:02.945Z,22.06
2022-07-30T19:34:11.763Z,22.10
2022-07-30T19:37:16.965Z,22.02
2022-07-30T19:40:22.187Z,21.99
2022-07-30T19:43:30.685Z,21.96
2022-07-30T19:46:39.058Z,21.76
2022-07-30T19:49:46.549Z,21.74
2022-07-30T19:52:54.739Z,21.62
2022-07-30T19:56:01.654Z,21.56
2022-07-30T19:59:14.685Z,21.50
2022-07-30T20:02:20.653Z,21.52
2022-07-30T20:05:27.718Z,21.43
2022-07-30T20:08:35.545Z,21.45
2022-07-30T20:11:40.781Z,21.47
2022-07-30T20:14:53.477Z,21.40
2022-07-30T20:17:58.483Z,21.31
2022-07-30T20:21:03.882Z,21.29
2022-07-30T20:24:09.934Z,21.27
2022-07-30T20:27:36.613Z,21.28
2022-07-30T20:30:42.933Z,21.29
2022-07-30T20:33:50.158Z,21.21
2022-07-30T21:15:23.593Z,20.03
2022-07-30T21:18:29.790Z,20.16
2022-07-30T21:21:41.874Z,20.21
2022-07-30T21:24:53.431Z,20.18
2022-07-30T21:27:58.994Z,20.21
2022-07-30T21:31:06.919Z,20.19
2022-07-30T21:34:13.350Z,20.20
2022-07-30T21:37:19.381Z,20.28
2022-07-30T21:40:25.012Z,20.27
2022-07-30T21:43:30.968Z,20.31
2022-07-30T21:46:40.533Z,20.36
2022-07-30T21:49:47.256Z,20.31
2022-07-30T21:52:52.320Z,20.33
2022-07-30T21:55:57.468Z,20.36
2022-07-30T21:59:02.859Z,20.36
2022-07-30T22:02:15.863Z,20.35
2022-07-30T22:08:49.388Z,20.44
2022-07-30T22:11:54.723Z,20.38
2022-07-30T22:15:00.925Z,20.36
2022-07-30T22:18:08.020Z,20.31
2022-07-30T22:21:14.572Z,20.21
2022-07-30T22:24:29.916Z,20.26
2022-07-30T22:27:39.956Z,20.27
2022-07-30T22:31:01.780Z,20.24
2022-07-30T22:34:12.104Z,20.28
2022-07-30T22:37:21.921Z,20.32
2022-07-30T22:40:26.820Z,20.30
2022-07-30T22:43:33.299Z,20.29
2022-07-30T22:46:46.225Z,20.28
2022-07-30T22:50:03.078Z,20.17
2022-07-30T22:53:23.357Z,20.14
2022-07-30T22:56:33.981Z,20.09
2022-07-30T22:59:58.020Z,20.11
2022-07-30T23:03:04.429Z,20.12
2022-07-30T23:06:16.275Z,20.11
2022-07-30T23:09:22.262Z,20.11
2022-07-30T23:12:32.822Z,20.36
2022-07-30T23:12:35.294Z,20.11
2022-07-30T23:15:40.977Z,20.02
2022-07-30T23:18:45.881Z,19.99
2022-07-30T23:21:52.868Z,20.00
2022-07-30T23:24:58.460Z,19.96
2022-07-30T23:28:03.976Z,19.96
2022-07-30T23:31:09.550Z,19.88
2022-07-30T23:34:14.768Z,19.84
2022-07-30T23:37:21.724Z,19.80
2022-07-30T23:40:27.190Z,19.72
2022-07-30T23:43:32.797Z,19.64
2022-07-30T23:46:38.303Z,19.56
2022-07-30T23:49:43.751Z,19.53
2022-07-30T23:52:50.690Z,19.49
2022-07-30T23:55:56.151Z,19.43
2022-07-30T23:59:01.917Z,19.43
